KFTW/FTW METAR and TAF weather

Enter ICAO airport designator
Station Type Date Time Source
KFTW METAR 2019/12/10 02:53 UTC NOAA

KFTW 100253Z 34012G19KT 10SM OVC100 07/00 A3007 RMK AO2 SLP182 T00670000 51033


Station Type Date Time Source
KFTW Decoded METAR 2019/12/10 02:53 UTC NOAA

FORT WORTH MEACHAM INTERNATIONAL ., TX, United States (KFTW) 32-50N 097-22W 214M
Dec 09, 2019 - 09:53 PM EST / 2019.12.10 0253 UTC
Wind: from the NNW (340 degrees) at 14 MPH (12 KT) gusting to 22 MPH (19 KT):0
Visibility: 10 mile(s):0
Sky conditions: overcast
Temperature: 44.1 F (6.7 C)
Dew Point: 32.0 F (0.0 C)
Relative Humidity: 62%
Pressure (altimeter): 30.07 in. Hg (1018 hPa)
Pressure tendency: 0.10 inches (3.3 hPa) higher than three hours ago
ob: KFTW 100253Z 34012G19KT 10SM OVC100 07/00 A3007 RMK AO2 SLP182 T00670000 51033
cycle: 3

Station Type Date Time Source
KFTW TAF 2019/12/10 03:54 UTC NOAA

TAF
AMD KFTW 100252Z 1003/1024 34015G25KT P6SM OVC100
FM100400 36016G26KT P6SM VCSH OVC070
FM100600 36017G27KT P6SM RA OVC022
FM101100 01016KT 5SM RA OVC015
TEMPO 1012/1015 2SM -RASN OVC009
FM101500 36010KT P6SM BKN060

Example: see airport list